createdAt,value
2019-03-29T00:00:46.631Z,69.26
2019-03-29T00:03:14.000Z,68.99
2019-03-29T00:05:41.338Z,68.38
2019-03-29T00:08:09.298Z,68.53
2019-03-29T00:10:37.162Z,68.48
2019-03-29T00:13:04.554Z,69.41
2019-03-29T00:15:31.844Z,69.06
2019-03-29T00:17:59.154Z,68.88
2019-03-29T00:20:26.416Z,68.92
2019-03-29T00:22:53.870Z,68.76
2019-03-29T00:25:21.125Z,68.99
2019-03-29T00:27:48.730Z,69.37
2019-03-29T00:30:16.010Z,69.58
2019-03-29T00:32:43.675Z,69.89
2019-03-29T00:35:10.982Z,69.99
2019-03-29T00:37:52.761Z,69.46
2019-03-29T00:40:10.144Z,69.48
2019-03-29T00:42:37.484Z,69.58
2019-03-29T00:45:05.460Z,69.09
2019-03-29T00:47:32.762Z,69.30
2019-03-29T00:50:00.097Z,69.52
2019-03-29T00:52:27.575Z,69.74
2019-03-29T00:54:55.070Z,70.10
2019-03-29T00:57:23.196Z,69.89
2019-03-29T00:59:50.658Z,69.93
2019-03-29T01:02:18.893Z,69.97
2019-03-29T01:04:46.806Z,70.24
2019-03-29T01:07:14.056Z,70.17
2019-03-29T01:09:41.442Z,70.21
2019-03-29T01:12:08.726Z,70.30
2019-03-29T01:14:36.385Z,70.30
2019-03-29T01:17:03.677Z,70.61
2019-03-29T01:19:30.954Z,70.79
2019-03-29T01:21:58.202Z,70.33
2019-03-29T01:24:25.485Z,70.06
2019-03-29T01:26:54.628Z,70.14
2019-03-29T01:29:23.818Z,69.49
2019-03-29T01:31:51.449Z,69.39
2019-03-29T01:34:18.711Z,69.64
2019-03-29T01:36:46.198Z,69.91
2019-03-29T01:39:13.645Z,69.82
2019-03-29T01:41:40.921Z,70.12
2019-03-29T01:44:08.311Z,69.86
2019-03-29T01:46:35.603Z,70.04
2019-03-29T01:49:04.266Z,69.76
2019-03-29T01:51:32.546Z,70.59
2019-03-29T01:53:59.812Z,70.69
2019-03-29T01:56:27.262Z,71.31
2019-03-29T01:58:54.524Z,72.31
2019-03-29T02:01:21.888Z,73.43
2019-03-29T02:03:49.163Z,73.84
2019-03-29T02:06:16.508Z,73.35
2019-03-29T02:08:43.914Z,73.47
2019-03-29T02:11:11.150Z,73.63
2019-03-29T02:13:38.537Z,73.42
2019-03-29T02:16:05.898Z,73.15
2019-03-29T02:18:33.244Z,72.62
2019-03-29T02:21:01.286Z,72.68
2019-03-29T02:23:28.694Z,72.97
2019-03-29T02:25:55.958Z,72.98
2019-03-29T02:28:23.314Z,73.43
2019-03-29T02:30:50.588Z,73.56
2019-03-29T02:33:17.862Z,73.65
2019-03-29T02:35:45.160Z,73.79
2019-03-29T02:38:12.524Z,73.44
2019-03-29T02:40:39.792Z,72.95
2019-03-29T02:43:07.086Z,72.98
2019-03-29T02:45:34.907Z,72.85
2019-03-29T02:48:02.133Z,73.41
2019-03-29T02:50:29.731Z,74.23
2019-03-29T02:52:56.964Z,74.80
2019-03-29T02:55:24.318Z,74.72
2019-03-29T02:57:51.737Z,73.82
2019-03-29T03:00:19.008Z,72.77
2019-03-29T03:02:46.276Z,71.83
2019-03-29T03:05:13.562Z,71.70
2019-03-29T03:07:40.872Z,71.99
2019-03-29T03:10:08.120Z,71.93
2019-03-29T03:12:35.444Z,71.62
2019-03-29T03:15:03.073Z,71.68
2019-03-29T03:17:30.324Z,71.56
2019-03-29T03:19:57.616Z,71.65
2019-03-29T03:22:24.855Z,71.16
2019-03-29T03:24:52.135Z,70.89
2019-03-29T03:27:19.428Z,70.61
2019-03-29T03:29:48.454Z,70.43
2019-03-29T03:32:16.348Z,70.67
2019-03-29T03:34:45.616Z,70.77
2019-03-29T03:37:12.907Z,70.81
2019-03-29T03:39:42.491Z,70.99
2019-03-29T03:42:09.749Z,71.18
2019-03-29T03:44:39.548Z,71.33
2019-03-29T03:47:06.807Z,71.08
2019-03-29T03:49:34.318Z,71.45
2019-03-29T03:52:01.644Z,71.04
2019-03-29T03:54:28.945Z,71.60
2019-03-29T03:56:56.248Z,71.62
2019-03-29T03:59:24.561Z,71.58
2019-03-29T04:01:51.855Z,71.74
2019-03-29T04:04:19.513Z,72.24
2019-03-29T04:06:46.975Z,72.05
2019-03-29T04:09:17.701Z,72.00
2019-03-29T04:11:44.951Z,72.89
2019-03-29T04:14:14.484Z,72.78
2019-03-29T04:16:41.775Z,73.06
2019-03-29T04:19:09.016Z,73.51
2019-03-29T04:21:36.384Z,73.72
2019-03-29T04:24:03.665Z,72.34
2019-03-29T04:26:31.995Z,72.00
2019-03-29T04:29:04.617Z,71.69
2019-03-29T04:31:29.132Z,71.65
2019-03-29T04:33:56.380Z,71.79
2019-03-29T04:36:23.763Z,71.50
2019-03-29T04:38:54.678Z,71.36
2019-03-29T04:41:21.934Z,71.23
2019-03-29T04:43:49.225Z,71.24
2019-03-29T04:46:16.592Z,71.05
2019-03-29T04:48:43.893Z,71.48
2019-03-29T04:51:13.973Z,71.75
2019-03-29T04:53:41.283Z,71.64
2019-03-29T04:56:08.647Z,71.38
2019-03-29T04:58:36.018Z,71.39
2019-03-29T05:01:03.647Z,71.51
2019-03-29T05:03:30.938Z,71.42
2019-03-29T05:05:58.219Z,71.59
2019-03-29T05:08:25.512Z,71.80
2019-03-29T05:10:52.895Z,72.29
2019-03-29T05:13:20.155Z,73.15
2019-03-29T05:15:47.447Z,73.02
2019-03-29T05:18:14.748Z,72.59
2019-03-29T05:20:42.223Z,72.51
2019-03-29T05:23:09.533Z,72.65
2019-03-29T05:25:36.821Z,72.84
2019-03-29T05:28:05.595Z,73.02
2019-03-29T05:30:33.035Z,72.69
2019-03-29T05:33:00.777Z,72.32
2019-03-29T05:35:28.309Z,73.62
2019-03-29T05:37:55.614Z,73.69
2019-03-29T05:40:34.245Z,74.82
2019-03-29T05:42:52.423Z,74.82
2019-03-29T05:45:19.844Z,74.37
2019-03-29T05:47:47.329Z,74.48
2019-03-29T05:50:14.763Z,74.85
2019-03-29T05:52:42.185Z,74.58
2019-03-29T05:55:09.709Z,74.58
2019-03-29T05:57:37.891Z,74.75
2019-03-29T06:00:06.701Z,74.55
2019-03-29T06:02:34.201Z,74.18
2019-03-29T06:05:01.575Z,74.25
2019-03-29T06:07:28.873Z,74.60
2019-03-29T06:09:56.254Z,74.87
2019-03-29T06:12:23.681Z,74.78
2019-03-29T06:14:54.160Z,74.60
2019-03-29T06:17:23.691Z,74.60
2019-03-29T06:19:51.087Z,74.88
2019-03-29T06:22:18.418Z,74.88
2019-03-29T06:24:46.257Z,75.12
2019-03-29T06:27:13.807Z,75.12
2019-03-29T06:29:41.293Z,74.53
2019-03-29T06:32:08.715Z,74.44
2019-03-29T06:34:36.895Z,73.84
2019-03-29T06:37:24.316Z,73.81
2019-03-29T06:39:51.671Z,73.75
2019-03-29T06:42:19.103Z,73.32
2019-03-29T06:44:46.532Z,73.63
2019-03-29T06:47:14.464Z,73.48
2019-03-29T06:49:41.774Z,73.58
2019-03-29T06:52:09.156Z,73.73
2019-03-29T06:54:39.281Z,73.36
2019-03-29T06:57:06.616Z,73.03
2019-03-29T06:59:33.989Z,72.75
2019-03-29T07:02:01.364Z,72.55
2019-03-29T07:04:28.727Z,72.55
2019-03-29T07:06:56.141Z,72.72
2019-03-29T07:09:23.565Z,72.93
2019-03-29T07:11:50.886Z,73.05
2019-03-29T07:14:18.399Z,72.92
2019-03-29T07:16:46.041Z,73.27
2019-03-29T07:19:13.335Z,72.89
2019-03-29T07:21:41.127Z,73.15
2019-03-29T07:24:08.481Z,72.63
2019-03-29T07:26:35.815Z,72.81
2019-03-29T07:29:03.197Z,72.24
2019-03-29T07:31:30.685Z,71.92
2019-03-29T07:33:59.218Z,71.84
2019-03-29T07:36:34.525Z,71.50
2019-03-29T07:39:02.232Z,71.13
2019-03-29T07:41:32.028Z,71.06
2019-03-29T07:43:59.081Z,71.06
2019-03-29T07:46:26.363Z,71.92
2019-03-29T07:48:55.342Z,72.29
2019-03-29T07:51:22.735Z,72.09
2019-03-29T07:53:50.277Z,71.64
2019-03-29T07:56:17.802Z,71.21
2019-03-29T07:58:45.512Z,71.02
2019-03-29T08:01:12.999Z,70.56
2019-03-29T08:03:42.475Z,70.05
2019-03-29T08:06:10.057Z,69.60
2019-03-29T08:08:37.506Z,69.17
2019-03-29T08:11:04.986Z,68.77
2019-03-29T08:13:34.524Z,68.56
2019-03-29T08:16:02.069Z,68.07
2019-03-29T08:18:30.271Z,67.06
2019-03-29T08:20:58.085Z,66.68
2019-03-29T08:23:28.686Z,66.28
2019-03-29T08:25:57.316Z,65.81
2019-03-29T08:28:24.959Z,65.63
2019-03-29T08:30:52.833Z,64.88
2019-03-29T08:33:20.852Z,64.66
2019-03-29T08:35:48.139Z,64.10
2019-03-29T08:38:15.527Z,63.80
2019-03-29T08:40:45.176Z,63.52
2019-03-29T08:43:13.375Z,62.95
2019-03-29T08:45:40.959Z,62.40
2019-03-29T08:48:08.547Z,62.18
2019-03-29T08:50:38.464Z,61.78
2019-03-29T08:53:09.474Z,61.63
2019-03-29T08:55:45.508Z,61.52
2019-03-29T08:58:06.363Z,60.63
2019-03-29T09:00:34.254Z,59.66
2019-03-29T09:03:01.859Z,58.69
2019-03-29T09:05:29.275Z,58.54
2019-03-29T09:07:56.856Z,57.97
2019-03-29T09:10:24.716Z,57.52
2019-03-29T09:12:52.155Z,57.42
2019-03-29T09:15:19.523Z,57.59
2019-03-29T09:17:47.059Z,57.17
2019-03-29T09:20:14.594Z,56.54
2019-03-29T09:22:43.906Z,56.52
2019-03-29T09:25:13.354Z,55.57
2019-03-29T09:27:41.140Z,55.39
2019-03-29T09:30:08.562Z,56.00
2019-03-29T09:32:35.972Z,54.99
2019-03-29T09:35:03.216Z,54.16
2019-03-29T09:37:32.689Z,53.25
2019-03-29T09:40:05.081Z,53.08
2019-03-29T09:42:39.202Z,52.30
2019-03-29T09:45:07.008Z,52.61
2019-03-29T09:47:40.549Z,51.60
2019-03-29T09:50:11.017Z,51.61
2019-03-29T09:52:39.686Z,51.30
2019-03-29T09:55:07.079Z,51.13
2019-03-29T09:57:38.209Z,50.73
2019-03-29T10:00:17.785Z,50.66
2019-03-29T10:02:36.844Z,50.31
2019-03-29T10:05:05.377Z,49.70
2019-03-29T10:07:33.298Z,50.21
2019-03-29T10:10:01.928Z,49.25
2019-03-29T10:12:42.593Z,49.18
2019-03-29T10:14:58.974Z,49.00
2019-03-29T10:17:26.403Z,49.20
2019-03-29T10:19:53.735Z,49.73
2019-03-29T10:22:21.571Z,49.51
2019-03-29T10:24:49.284Z,49.29
2019-03-29T10:27:19.066Z,49.45
2019-03-29T10:29:46.499Z,48.87
2019-03-29T10:32:17.134Z,48.65
2019-03-29T10:34:45.004Z,49.05
2019-03-29T10:37:12.436Z,48.14
2019-03-29T10:39:58.533Z,47.70
2019-03-29T10:42:26.170Z,47.53
2019-03-29T10:44:53.715Z,47.37
2019-03-29T10:47:21.332Z,47.60
2019-03-29T10:49:48.644Z,47.10
2019-03-29T10:52:16.008Z,46.78
2019-03-29T10:54:43.346Z,46.01
2019-03-29T10:57:10.830Z,46.26
2019-03-29T10:59:40.132Z,45.90
2019-03-29T11:02:07.446Z,46.40
2019-03-29T11:04:34.897Z,46.29
2019-03-29T11:07:04.056Z,46.38
2019-03-29T11:09:31.900Z,46.73
2019-03-29T11:12:00.543Z,46.80
2019-03-29T11:14:27.923Z,46.79
2019-03-29T11:16:55.308Z,47.10
2019-03-29T11:19:25.716Z,47.11
2019-03-29T11:21:53.098Z,47.63
2019-03-29T11:24:20.908Z,47.60
2019-03-29T11:26:48.494Z,47.61
2019-03-29T11:29:15.935Z,47.65
2019-03-29T11:31:48.515Z,47.50
2019-03-29T11:34:16.070Z,47.59
2019-03-29T11:36:44.044Z,47.85
2019-03-29T11:39:13.734Z,47.96
2019-03-29T11:41:44.776Z,47.76
2019-03-29T11:44:12.940Z,46.68
2019-03-29T11:46:40.636Z,46.47
2019-03-29T11:49:08.830Z,46.54
2019-03-29T11:51:36.156Z,45.76
2019-03-29T11:54:03.605Z,45.85
2019-03-29T11:56:31.470Z,45.55
2019-03-29T11:58:59.360Z,45.10
2019-03-29T12:01:26.624Z,44.00
2019-03-29T12:03:54.393Z,43.63
2019-03-29T12:06:26.838Z,43.61
2019-03-29T12:08:57.038Z,43.68
2019-03-29T12:11:23.698Z,42.95
2019-03-29T12:13:53.965Z,43.37
2019-03-29T12:16:21.860Z,42.69
2019-03-29T12:18:50.781Z,42.17
2019-03-29T12:21:19.372Z,41.09
2019-03-29T12:23:47.514Z,41.62
2019-03-29T12:26:16.110Z,40.84
2019-03-29T12:28:43.692Z,40.21
2019-03-29T12:31:11.544Z,40.56
2019-03-29T12:33:39.042Z,40.05
2019-03-29T12:36:06.726Z,40.25
2019-03-29T12:38:34.114Z,40.12
2019-03-29T12:41:01.382Z,40.12
2019-03-29T12:43:31.151Z,40.02
2019-03-29T12:45:58.682Z,40.64
2019-03-29T12:48:26.315Z,39.98
2019-03-29T12:50:53.598Z,39.39
2019-03-29T12:53:21.133Z,38.83
2019-03-29T12:55:48.436Z,38.26
2019-03-29T12:58:15.942Z,37.76
2019-03-29T13:00:43.318Z,38.16
2019-03-29T13:03:11.421Z,37.10
2019-03-29T13:05:38.846Z,36.93
2019-03-29T13:08:06.182Z,37.12
2019-03-29T13:10:33.825Z,36.90
2019-03-29T13:13:01.186Z,37.29
2019-03-29T13:15:30.869Z,37.40
2019-03-29T13:18:01.180Z,36.36
2019-03-29T13:20:28.991Z,35.22
2019-03-29T13:22:56.308Z,34.72
2019-03-29T13:25:24.200Z,33.76
2019-03-29T13:27:51.532Z,34.78
2019-03-29T13:30:20.959Z,35.08
2019-03-29T13:32:50.617Z,33.59
2019-03-29T13:35:17.971Z,33.70
2019-03-29T13:37:45.414Z,33.04
2019-03-29T13:40:13.013Z,32.75
2019-03-29T13:42:40.317Z,33.04
2019-03-29T13:45:07.737Z,32.66
2019-03-29T13:47:35.617Z,32.83
2019-03-29T13:50:03.354Z,32.42
2019-03-29T13:52:31.331Z,31.44
2019-03-29T13:54:58.706Z,32.57
2019-03-29T13:57:26.023Z,31.96
2019-03-29T13:59:54.117Z,31.42
2019-03-29T14:02:21.985Z,31.20
2019-03-29T14:04:49.295Z,31.84
2019-03-29T14:07:16.789Z,31.41
2019-03-29T14:09:44.228Z,31.44
2019-03-29T14:12:11.805Z,32.16
2019-03-29T14:14:39.262Z,31.65
2019-03-29T14:17:06.919Z,31.37
2019-03-29T14:19:34.191Z,30.61
2019-03-29T14:22:01.520Z,31.47
2019-03-29T14:24:31.203Z,30.60
2019-03-29T14:26:59.301Z,30.84
2019-03-29T14:29:26.831Z,30.46
2019-03-29T14:31:54.434Z,30.68
2019-03-29T14:34:21.998Z,30.59
2019-03-29T14:36:54.559Z,30.72
2019-03-29T14:39:22.328Z,30.41
2019-03-29T14:41:50.285Z,30.11
2019-03-29T14:44:18.141Z,29.29
2019-03-29T14:46:45.526Z,28.73
2019-03-29T14:49:13.373Z,29.74
2019-03-29T14:51:40.826Z,29.25
2019-03-29T14:54:08.351Z,29.67
2019-03-29T14:56:36.169Z,29.30
2019-03-29T14:59:09.567Z,28.28
2019-03-29T15:01:37.019Z,28.67
2019-03-29T15:04:04.953Z,27.97
2019-03-29T15:06:32.329Z,28.29
2019-03-29T15:09:00.093Z,28.96
2019-03-29T15:11:27.600Z,28.26
2019-03-29T15:13:55.121Z,28.14
2019-03-29T15:16:22.718Z,27.97
2019-03-29T15:18:50.126Z,27.63
2019-03-29T15:21:17.478Z,28.26
2019-03-29T15:23:44.882Z,28.17
2019-03-29T15:26:14.985Z,28.11
2019-03-29T15:28:42.285Z,28.35
2019-03-29T15:31:09.991Z,28.04
2019-03-29T15:33:37.859Z,27.87
2019-03-29T15:36:06.451Z,27.95
2019-03-29T15:38:33.752Z,28.50
2019-03-29T15:41:03.079Z,27.06
2019-03-29T15:43:33.900Z,27.78
2019-03-29T15:46:01.304Z,27.98
2019-03-29T15:48:28.727Z,28.79
2019-03-29T15:50:56.048Z,29.67
2019-03-29T15:53:24.548Z,30.53
2019-03-29T15:55:52.033Z,31.26
2019-03-29T15:58:19.805Z,32.15
2019-03-29T16:00:47.911Z,32.27
2019-03-29T16:03:15.075Z,32.66
2019-03-29T16:05:42.448Z,33.18
2019-03-29T16:08:09.749Z,33.23
2019-03-29T16:10:37.410Z,33.49
2019-03-29T16:13:04.769Z,33.97
2019-03-29T16:15:35.162Z,33.63
2019-03-29T16:18:03.555Z,33.66
2019-03-29T16:20:30.886Z,34.23
2019-03-29T16:22:58.256Z,34.59
2019-03-29T16:25:25.559Z,34.22
2019-03-29T16:27:52.846Z,34.84
2019-03-29T16:30:20.341Z,34.17
2019-03-29T16:32:47.656Z,34.28
2019-03-29T16:35:14.930Z,33.93
2019-03-29T16:37:42.278Z,32.67
2019-03-29T16:40:09.923Z,31.22
2019-03-29T16:42:37.251Z,31.38
2019-03-29T16:45:04.691Z,31.31
2019-03-29T16:47:32.424Z,30.42
2019-03-29T16:49:59.769Z,29.53
2019-03-29T16:52:27.437Z,30.09
2019-03-29T16:54:54.910Z,30.47
2019-03-29T16:57:22.282Z,30.85
2019-03-29T16:59:49.761Z,31.01
2019-03-29T17:02:17.075Z,31.54
2019-03-29T17:04:44.381Z,31.92
2019-03-29T17:07:11.669Z,32.80
2019-03-29T17:09:39.343Z,33.39
2019-03-29T17:12:06.893Z,33.89
2019-03-29T17:14:34.287Z,34.24
2019-03-29T17:17:01.679Z,34.21
2019-03-29T17:19:28.947Z,34.49
2019-03-29T17:21:58.585Z,34.80
2019-03-29T17:24:25.886Z,35.11
2019-03-29T17:26:53.119Z,35.26
2019-03-29T17:29:20.404Z,35.53
2019-03-29T17:31:47.722Z,35.94
2019-03-29T17:34:15.109Z,36.00
2019-03-29T17:36:42.368Z,36.29
2019-03-29T17:39:09.804Z,36.41
2019-03-29T17:41:37.040Z,36.42
2019-03-29T17:44:04.356Z,36.59
2019-03-29T17:46:31.622Z,36.57
2019-03-29T17:48:58.899Z,36.66
2019-03-29T17:51:26.163Z,36.93
2019-03-29T17:53:53.525Z,37.13
2019-03-29T17:56:21.233Z,37.12
2019-03-29T17:58:48.533Z,37.51
2019-03-29T18:01:15.826Z,37.30
2019-03-29T18:03:43.185Z,37.65
2019-03-29T18:06:10.599Z,37.68
2019-03-29T18:08:38.073Z,37.96
2019-03-29T18:11:05.367Z,38.32
2019-03-29T18:13:33.067Z,38.35
2019-03-29T18:16:00.561Z,38.48
2019-03-29T18:18:28.195Z,38.74
2019-03-29T18:20:55.481Z,38.80
2019-03-29T18:23:24.960Z,39.01
2019-03-29T18:25:51.938Z,39.28
2019-03-29T18:28:19.208Z,39.46
2019-03-29T18:30:46.455Z,39.79
2019-03-29T18:33:13.755Z,40.10
2019-03-29T18:35:41.357Z,40.43
2019-03-29T18:38:08.639Z,40.71
2019-03-29T18:40:35.956Z,40.72
2019-03-29T18:43:03.276Z,41.09
2019-03-29T18:45:30.668Z,41.45
2019-03-29T18:47:58.067Z,41.55
2019-03-29T18:50:25.360Z,41.62
2019-03-29T18:52:52.645Z,41.74
2019-03-29T18:55:20.194Z,42.02
2019-03-29T18:57:47.491Z,42.51
2019-03-29T19:00:18.668Z,42.76
2019-03-29T19:02:45.964Z,42.93
2019-03-29T19:05:22.587Z,43.36
2019-03-29T19:07:51.934Z,43.54
2019-03-29T19:10:19.376Z,43.90
2019-03-29T19:12:46.679Z,44.03
2019-03-29T19:15:13.969Z,44.46
2019-03-29T19:17:41.366Z,44.89
2019-03-29T19:20:10.140Z,45.07
2019-03-29T19:22:38.103Z,45.45
2019-03-29T19:25:05.754Z,45.68
2019-03-29T19:27:33.114Z,46.37
2019-03-29T19:30:00.821Z,46.85
2019-03-29T19:32:28.340Z,47.25
2019-03-29T19:34:55.874Z,47.78
2019-03-29T19:37:23.235Z,48.62
2019-03-29T19:39:50.652Z,48.73
2019-03-29T19:42:18.189Z,48.94
2019-03-29T19:44:45.466Z,49.40
2019-03-29T19:47:14.054Z,49.93
2019-03-29T19:49:41.538Z,49.64
2019-03-29T19:52:10.171Z,49.62
2019-03-29T19:54:37.767Z,49.91
2019-03-29T19:57:05.509Z,49.82
2019-03-29T19:59:32.715Z,50.06
2019-03-29T20:01:59.980Z,50.20
2019-03-29T20:04:27.627Z,50.54
2019-03-29T20:06:54.915Z,50.63
2019-03-29T20:09:22.177Z,50.87
2019-03-29T20:11:49.798Z,51.42
2019-03-29T20:14:17.081Z,51.85
2019-03-29T20:16:44.447Z,52.26
2019-03-29T20:19:11.700Z,52.54
2019-03-29T20:21:43.790Z,52.55
2019-03-29T20:24:11.575Z,52.73
2019-03-29T20:26:39.361Z,52.97
2019-03-29T20:29:06.633Z,53.83
2019-03-29T20:31:34.063Z,53.80
2019-03-29T20:34:01.944Z,53.82
2019-03-29T20:36:31.290Z,54.12
2019-03-29T20:38:58.754Z,54.25
2019-03-29T20:41:27.524Z,54.34
2019-03-29T20:43:55.054Z,54.62
2019-03-29T20:46:22.368Z,54.81
2019-03-29T20:48:49.784Z,55.04
2019-03-29T20:51:17.231Z,55.36
2019-03-29T20:53:44.818Z,54.98
2019-03-29T20:56:14.028Z,55.11
2019-03-29T20:58:41.320Z,55.15
2019-03-29T21:01:08.612Z,55.25
2019-03-29T21:03:36.235Z,55.30
2019-03-29T21:06:03.820Z,56.03
2019-03-29T21:08:31.456Z,55.74
2019-03-29T21:11:00.582Z,56.36
2019-03-29T21:13:28.139Z,56.13
2019-03-29T21:15:55.586Z,56.43
2019-03-29T21:18:22.965Z,56.61
2019-03-29T21:20:50.477Z,56.55
2019-03-29T21:23:19.716Z,56.58
2019-03-29T21:25:48.889Z,56.85
2019-03-29T21:28:16.761Z,56.86
2019-03-29T21:30:45.178Z,57.22
2019-03-29T21:33:12.800Z,57.59
2019-03-29T21:35:40.587Z,57.77
2019-03-29T21:38:09.862Z,57.88
2019-03-29T21:40:37.824Z,57.94
2019-03-29T21:43:05.272Z,58.47
2019-03-29T21:45:32.552Z,59.00
2019-03-29T21:48:09.965Z,59.01
2019-03-29T21:50:33.992Z,58.96
2019-03-29T21:53:01.539Z,59.23
2019-03-29T21:55:28.790Z,59.24
2019-03-29T21:57:56.172Z,58.99
2019-03-29T22:00:24.444Z,58.92
2019-03-29T22:02:51.867Z,58.95
2019-03-29T22:05:19.132Z,58.69
2019-03-29T22:07:46.725Z,58.75
2019-03-29T22:10:14.779Z,58.84
2019-03-29T22:12:43.256Z,59.27
2019-03-29T22:15:10.764Z,59.47
2019-03-29T22:17:42.061Z,59.37
2019-03-29T22:20:10.885Z,59.44
2019-03-29T22:22:38.236Z,59.53
2019-03-29T22:25:06.529Z,59.44
2019-03-29T22:27:34.251Z,59.99
2019-03-29T22:30:01.533Z,60.33
2019-03-29T22:32:28.828Z,60.84
2019-03-29T22:34:56.185Z,61.31
2019-03-29T22:37:23.760Z,61.34
2019-03-29T22:39:54.315Z,61.57
2019-03-29T22:42:21.630Z,61.50
2019-03-29T22:44:49.084Z,61.75
2019-03-29T22:47:16.500Z,61.95
2019-03-29T22:49:44.590Z,61.41
2019-03-29T22:52:11.986Z,61.73
2019-03-29T22:54:39.504Z,61.52
2019-03-29T22:57:06.891Z,62.02
2019-03-29T22:59:34.740Z,62.46
2019-03-29T23:02:02.127Z,62.73
2019-03-29T23:04:29.700Z,62.86
2019-03-29T23:07:00.030Z,63.13
2019-03-29T23:09:27.272Z,62.83
2019-03-29T23:11:54.547Z,62.62
2019-03-29T23:14:22.146Z,63.23
2019-03-29T23:16:49.710Z,63.84
2019-03-29T23:19:17.298Z,63.23
2019-03-29T23:21:45.054Z,63.42
2019-03-29T23:24:12.327Z,64.03
2019-03-29T23:26:39.611Z,63.72
2019-03-29T23:29:06.874Z,63.62
2019-03-29T23:31:34.377Z,63.43
2019-03-29T23:34:01.681Z,63.34
2019-03-29T23:36:28.938Z,63.34
2019-03-29T23:38:56.220Z,63.47
2019-03-29T23:41:23.636Z,63.71
2019-03-29T23:43:50.876Z,63.89
2019-03-29T23:46:18.972Z,64.34
2019-03-29T23:48:46.376Z,64.58
2019-03-29T23:51:13.622Z,64.56
2019-03-29T23:53:40.889Z,64.35
2019-03-29T23:56:08.221Z,64.75
2019-03-29T23:58:35.475Z,64.66
